createdAt,value
2023-03-26T00:01:05.709Z,10.07
2023-03-26T00:03:33.985Z,10.24
2023-03-26T00:06:04.062Z,10.19
2023-03-26T00:08:31.399Z,10.54
2023-03-26T00:11:00.952Z,10.99
2023-03-26T00:13:28.565Z,11.13
2023-03-26T00:15:56.142Z,11.11
2023-03-26T00:18:42.651Z,10.79
2023-03-26T00:21:14.650Z,10.24
2023-03-26T00:23:42.344Z,10.32
2023-03-26T00:26:10.637Z,10.30
2023-03-26T00:28:40.347Z,10.56
2023-03-26T00:31:09.945Z,10.48
2023-03-26T00:33:40.740Z,10.04
2023-03-26T00:36:11.154Z,10.44
2023-03-26T00:38:41.416Z,10.59
2023-03-26T00:41:17.346Z,10.45
2023-03-26T00:43:46.683Z,10.56
2023-03-26T00:46:14.370Z,10.17
2023-03-26T00:48:45.739Z,10.30
2023-03-26T00:51:17.889Z,9.78
2023-03-26T00:53:46.330Z,10.09
2023-03-26T00:56:14.014Z,9.90
2023-03-26T00:58:41.453Z,9.23
2023-03-26T01:01:13.932Z,9.53
2023-03-26T01:03:50.179Z,9.67
2023-03-26T01:06:32.766Z,9.48
2023-03-26T01:09:06.741Z,10.16
2023-03-26T01:11:35.007Z,9.84
2023-03-26T01:14:07.332Z,9.99
2023-03-26T01:16:49.827Z,9.99
2023-03-26T01:19:45.560Z,9.60
2023-03-26T01:22:18.722Z,9.64
2023-03-26T01:24:52.860Z,9.89
2023-03-26T01:27:42.420Z,9.99
2023-03-26T01:30:15.753Z,9.75
2023-03-26T01:33:03.271Z,10.12
2023-03-26T01:35:54.999Z,10.38
2023-03-26T01:38:41.028Z,9.82
2023-03-26T01:41:22.619Z,10.11
2023-03-26T01:44:11.495Z,9.74
2023-03-26T01:46:39.256Z,10.32
2023-03-26T01:49:12.849Z,9.96
2023-03-26T01:51:41.619Z,10.37
2023-03-26T01:54:20.069Z,10.66
2023-03-26T01:56:53.724Z,10.80
2023-03-26T01:59:48.912Z,10.58
2023-03-26T02:02:29.965Z,11.13
2023-03-26T02:05:09.636Z,10.02
2023-03-26T02:07:56.018Z,10.61
2023-03-26T02:10:28.388Z,10.29
2023-03-26T02:12:56.346Z,10.63
2023-03-26T02:15:24.282Z,10.64
2023-03-26T02:17:53.050Z,10.78
2023-03-26T02:20:21.172Z,10.70
2023-03-26T02:22:48.599Z,11.07
2023-03-26T02:25:18.270Z,11.16
2023-03-26T02:27:46.367Z,10.49
2023-03-26T02:30:16.361Z,11.00
2023-03-26T02:32:44.514Z,11.33
2023-03-26T02:35:12.359Z,11.33
2023-03-26T02:37:39.883Z,11.09
2023-03-26T02:40:11.342Z,11.35
2023-03-26T02:42:39.672Z,11.35
2023-03-26T02:45:07.387Z,11.16
2023-03-26T02:47:36.272Z,11.28
2023-03-26T02:50:06.491Z,11.34
2023-03-26T02:52:36.115Z,10.68
2023-03-26T02:55:04.013Z,10.97
2023-03-26T02:57:32.081Z,10.75
2023-03-26T03:00:13.262Z,11.09
2023-03-26T03:02:44.474Z,10.67
2023-03-26T03:05:14.035Z,10.95
2023-03-26T03:07:41.641Z,11.19
2023-03-26T03:10:10.033Z,11.22
2023-03-26T03:12:42.419Z,11.12
2023-03-26T03:15:10.672Z,11.29
2023-03-26T03:17:38.296Z,11.31
2023-03-26T03:20:09.207Z,11.04
2023-03-26T03:22:38.660Z,11.10
2023-03-26T03:25:09.126Z,11.17
2023-03-26T03:27:39.375Z,11.27
2023-03-26T03:30:07.993Z,10.95
2023-03-26T03:32:38.103Z,10.80
2023-03-26T03:35:06.072Z,11.01
2023-03-26T03:37:33.822Z,10.82
2023-03-26T03:40:01.196Z,11.03
2023-03-26T03:42:29.025Z,10.73
2023-03-26T03:44:56.885Z,10.74
2023-03-26T03:47:26.291Z,10.69
2023-03-26T03:49:53.758Z,10.59
2023-03-26T03:52:21.500Z,10.61
2023-03-26T03:54:49.472Z,10.73
2023-03-26T03:57:18.875Z,10.25
2023-03-26T03:59:48.350Z,10.53
2023-03-26T04:02:34.784Z,10.48
2023-03-26T04:05:03.392Z,10.13
2023-03-26T04:07:32.179Z,10.58
2023-03-26T04:10:04.045Z,10.50
2023-03-26T04:12:32.404Z,10.06
2023-03-26T04:14:59.992Z,10.32
2023-03-26T04:17:27.513Z,10.37
2023-03-26T04:19:55.661Z,10.06
2023-03-26T04:22:24.841Z,10.13
2023-03-26T04:24:54.387Z,10.18
2023-03-26T04:27:25.574Z,10.18
2023-03-26T04:29:53.169Z,10.10
2023-03-26T04:32:30.168Z,9.84
2023-03-26T04:35:00.826Z,10.23
2023-03-26T04:37:34.548Z,10.31
2023-03-26T04:40:11.238Z,10.47
2023-03-26T04:42:41.806Z,10.15
2023-03-26T04:45:11.286Z,10.31
2023-03-26T04:47:39.687Z,10.08
2023-03-26T04:50:08.224Z,10.14
2023-03-26T04:52:36.425Z,10.37
2023-03-26T04:55:06.922Z,10.13
2023-03-26T04:57:39.275Z,10.09
2023-03-26T05:00:15.932Z,10.15
2023-03-26T05:02:43.745Z,10.30
2023-03-26T05:05:11.543Z,10.56
2023-03-26T05:07:38.950Z,10.75
2023-03-26T05:10:11.323Z,10.87
2023-03-26T05:12:39.572Z,10.84
2023-03-26T05:15:08.183Z,10.99
2023-03-26T05:17:41.589Z,11.06
2023-03-26T05:20:30.239Z,10.88
2023-03-26T05:22:57.731Z,11.34
2023-03-26T05:25:25.662Z,11.49
2023-03-26T05:27:53.969Z,11.19
2023-03-26T05:30:21.760Z,11.66
2023-03-26T05:32:50.101Z,11.36
2023-03-26T05:35:18.708Z,11.70
2023-03-26T05:37:46.836Z,11.94
2023-03-26T05:40:16.865Z,11.94
2023-03-26T05:42:45.571Z,12.22
2023-03-26T05:45:14.968Z,12.32
2023-03-26T05:47:42.530Z,12.14
2023-03-26T05:50:10.562Z,12.34
2023-03-26T05:52:38.568Z,12.28
2023-03-26T05:55:08.323Z,12.27
2023-03-26T05:57:42.654Z,12.43
2023-03-26T06:00:16.560Z,12.52
2023-03-26T06:02:44.216Z,12.26
2023-03-26T06:05:12.587Z,12.40
2023-03-26T06:07:44.169Z,12.57
2023-03-26T06:10:18.072Z,12.69
2023-03-26T06:12:46.724Z,12.76
2023-03-26T06:15:14.702Z,12.22
2023-03-26T06:17:42.361Z,12.54
2023-03-26T06:20:10.893Z,12.32
2023-03-26T06:22:38.587Z,12.73
2023-03-26T06:25:08.027Z,12.48
2023-03-26T06:27:36.206Z,12.39
2023-03-26T06:30:04.301Z,12.26
2023-03-26T06:32:32.612Z,12.81
2023-03-26T06:35:00.294Z,13.03
2023-03-26T06:37:28.346Z,12.88
2023-03-26T06:39:56.167Z,12.76
2023-03-26T06:42:32.046Z,12.62
2023-03-26T06:45:11.631Z,12.25
2023-03-26T06:47:42.631Z,12.78
2023-03-26T06:50:11.888Z,13.18
2023-03-26T06:52:39.649Z,13.75
2023-03-26T06:55:10.302Z,13.73
2023-03-26T06:57:39.398Z,13.74
2023-03-26T07:00:09.387Z,13.01
2023-03-26T07:02:41.330Z,13.79
2023-03-26T07:05:23.605Z,14.07
2023-03-26T07:07:57.659Z,14.67
2023-03-26T07:10:36.186Z,14.97
2023-03-26T07:13:03.906Z,14.65
2023-03-26T07:15:34.007Z,14.54
2023-03-26T07:18:02.792Z,14.42
2023-03-26T07:20:30.995Z,14.05
2023-03-26T07:22:58.687Z,14.24
2023-03-26T07:25:28.654Z,14.03
2023-03-26T07:28:08.853Z,13.94
2023-03-26T07:30:49.284Z,13.70
2023-03-26T07:33:28.838Z,13.91
2023-03-26T07:36:17.270Z,14.32
2023-03-26T07:39:21.717Z,14.16
2023-03-26T07:42:16.562Z,14.54
2023-03-26T07:44:57.778Z,15.06
2023-03-26T07:47:32.602Z,14.98
2023-03-26T07:50:02.516Z,15.33
2023-03-26T07:52:31.526Z,15.33
2023-03-26T07:54:59.422Z,15.49
2023-03-26T07:58:06.193Z,15.22
2023-03-26T08:00:58.812Z,15.81
2023-03-26T08:03:28.879Z,16.33
2023-03-26T08:06:11.518Z,16.25
2023-03-26T08:08:48.448Z,16.28
2023-03-26T08:11:44.943Z,16.30
2023-03-26T08:14:50.853Z,16.66
2023-03-26T08:17:31.669Z,16.70
2023-03-26T08:20:02.302Z,16.66
2023-03-26T08:22:34.266Z,16.80
2023-03-26T08:25:17.809Z,16.95
2023-03-26T08:27:57.469Z,16.97
2023-03-26T08:30:26.082Z,17.00
2023-03-26T08:33:02.548Z,17.15
2023-03-26T08:35:31.011Z,16.55
2023-03-26T08:37:58.613Z,17.23
2023-03-26T08:41:07.927Z,17.26
2023-03-26T08:43:55.609Z,17.31
2023-03-26T08:47:02.057Z,17.37
2023-03-26T08:49:54.400Z,17.38
2023-03-26T08:52:49.451Z,17.65
2023-03-26T08:55:50.490Z,17.11
2023-03-26T08:58:42.101Z,17.07
2023-03-26T09:01:12.151Z,17.71
2023-03-26T09:03:58.904Z,17.87
2023-03-26T09:06:45.324Z,17.53
2023-03-26T09:09:46.100Z,17.27
2023-03-26T09:12:35.013Z,17.75
2023-03-26T09:15:30.370Z,17.89
2023-03-26T09:18:05.844Z,18.55
2023-03-26T09:20:51.280Z,18.78
2023-03-26T09:23:43.924Z,18.69
2023-03-26T09:26:24.808Z,18.41
2023-03-26T09:29:04.249Z,18.61
2023-03-26T09:31:58.070Z,18.44
2023-03-26T09:34:44.067Z,18.92
2023-03-26T09:37:13.966Z,18.63
2023-03-26T09:39:47.216Z,18.57
2023-03-26T09:42:20.782Z,18.26
2023-03-26T09:45:10.597Z,18.38
2023-03-26T09:47:52.969Z,18.54
2023-03-26T09:50:48.359Z,16.28
2023-03-26T09:53:40.991Z,16.82
2023-03-26T09:56:33.700Z,16.56
2023-03-26T09:59:08.186Z,16.29
2023-03-26T10:01:50.907Z,17.04
2023-03-26T10:04:38.562Z,17.23
2023-03-26T10:07:47.898Z,17.40
2023-03-26T10:10:18.423Z,17.11
2023-03-26T10:12:46.441Z,16.96
2023-03-26T10:15:19.841Z,15.89
2023-03-26T10:18:27.105Z,15.48
2023-03-26T10:21:15.794Z,15.21
2023-03-26T10:23:46.313Z,13.60
2023-03-26T10:26:35.080Z,13.67
2023-03-26T10:29:34.143Z,13.94
2023-03-26T10:32:15.459Z,14.49
2023-03-26T10:35:07.985Z,14.72
2023-03-26T10:38:11.103Z,14.56
2023-03-26T10:41:09.808Z,14.79
2023-03-26T10:44:14.473Z,14.72
2023-03-26T10:47:15.627Z,13.93
2023-03-26T10:50:27.770Z,14.38
2023-03-26T10:53:10.348Z,14.78
2023-03-26T10:55:38.330Z,14.58
2023-03-26T10:58:26.088Z,15.08
2023-03-26T11:01:06.240Z,14.51
2023-03-26T11:03:54.187Z,14.48
2023-03-26T11:06:27.429Z,14.21
2023-03-26T11:09:22.586Z,13.82
2023-03-26T11:12:38.071Z,14.19
2023-03-26T11:15:21.871Z,14.11
2023-03-26T11:18:10.884Z,14.76
2023-03-26T11:20:53.699Z,14.84
2023-03-26T11:23:35.033Z,15.05
2023-03-26T11:26:28.869Z,15.31
2023-03-26T11:29:32.297Z,15.40
2023-03-26T11:32:01.054Z,16.28
2023-03-26T11:34:53.622Z,16.73
2023-03-26T11:37:30.841Z,16.53
2023-03-26T11:39:59.934Z,16.91
2023-03-26T11:42:27.587Z,16.56
2023-03-26T11:45:07.948Z,16.33
2023-03-26T11:47:42.821Z,16.21
2023-03-26T11:50:15.681Z,16.88
2023-03-26T11:52:44.101Z,16.99
2023-03-26T11:55:13.008Z,16.95
2023-03-26T11:57:42.388Z,17.38
2023-03-26T12:00:18.354Z,17.21
2023-03-26T12:02:47.156Z,16.96
2023-03-26T12:05:18.076Z,17.48
2023-03-26T12:07:46.839Z,17.86
2023-03-26T12:10:24.576Z,17.63
2023-03-26T12:12:58.542Z,17.90
2023-03-26T12:15:26.206Z,18.16
2023-03-26T12:17:56.449Z,18.89
2023-03-26T12:20:24.812Z,18.32
2023-03-26T12:22:59.162Z,18.25
2023-03-26T12:25:30.070Z,17.99
2023-03-26T12:28:13.454Z,18.39
2023-03-26T12:30:42.388Z,18.70
2023-03-26T12:33:29.670Z,18.50
2023-03-26T12:35:58.065Z,18.65
2023-03-26T12:38:33.113Z,18.71
2023-03-26T12:41:08.624Z,18.41
2023-03-26T12:44:46.409Z,18.38
2023-03-26T12:48:00.516Z,18.58
2023-03-26T12:49:33.527Z,18.38
2023-03-26T12:52:33.156Z,18.20
2023-03-26T12:55:12.222Z,18.54
2023-03-26T12:57:47.825Z,18.64
2023-03-26T13:00:38.226Z,18.40
2023-03-26T13:03:31.234Z,18.94
2023-03-26T13:06:08.304Z,18.84
2023-03-26T13:08:55.687Z,19.06
2023-03-26T13:11:25.893Z,19.28
2023-03-26T13:14:05.498Z,18.84
2023-03-26T13:17:03.393Z,19.22
2023-03-26T13:19:37.529Z,19.32
2023-03-26T13:22:16.139Z,19.39
2023-03-26T13:25:07.659Z,19.03
2023-03-26T13:27:59.261Z,19.38
2023-03-26T13:30:50.180Z,19.73
2023-03-26T13:33:40.898Z,19.80
2023-03-26T13:36:24.506Z,19.26
2023-03-26T13:39:14.121Z,19.33
2023-03-26T13:42:09.934Z,19.14
2023-03-26T13:45:25.394Z,19.40
2023-03-26T13:47:55.137Z,18.85
2023-03-26T13:50:24.190Z,19.36
2023-03-26T13:53:12.196Z,19.14
2023-03-26T13:55:44.062Z,19.54
2023-03-26T13:58:37.598Z,19.37
2023-03-26T14:01:19.412Z,19.37
2023-03-26T14:03:52.811Z,19.18
2023-03-26T14:06:57.232Z,19.46
2023-03-26T14:09:29.669Z,19.47
2023-03-26T14:11:57.665Z,19.27
2023-03-26T14:14:41.422Z,19.27
2023-03-26T14:17:40.683Z,18.91
2023-03-26T14:20:27.248Z,18.87
2023-03-26T14:23:30.056Z,18.75
2023-03-26T14:26:01.548Z,18.94
2023-03-26T14:28:52.818Z,18.54
2023-03-26T14:31:23.681Z,18.90
2023-03-26T14:33:59.718Z,19.17
2023-03-26T14:36:52.964Z,18.56
2023-03-26T14:39:46.574Z,18.97
2023-03-26T14:42:31.457Z,18.96
2023-03-26T14:45:20.767Z,18.51
2023-03-26T14:47:58.555Z,18.86
2023-03-26T14:50:42.735Z,18.86
2023-03-26T14:53:26.122Z,18.64
2023-03-26T14:56:18.485Z,18.18
2023-03-26T14:59:23.325Z,18.67
2023-03-26T15:02:28.883Z,18.24
2023-03-26T15:05:20.230Z,18.47
2023-03-26T15:08:16.926Z,18.50
2023-03-26T15:11:05.451Z,18.13
2023-03-26T15:13:55.188Z,18.59
2023-03-26T15:16:41.235Z,18.72
2023-03-26T15:19:21.152Z,18.62
2023-03-26T15:22:17.299Z,18.65
2023-03-26T15:24:58.047Z,18.55
2023-03-26T15:28:00.181Z,18.98
2023-03-26T15:31:09.980Z,18.90
2023-03-26T15:33:52.424Z,18.90
2023-03-26T15:36:37.175Z,18.59
2023-03-26T15:39:38.220Z,18.23
2023-03-26T15:42:12.506Z,18.56
2023-03-26T15:44:54.622Z,18.32
2023-03-26T15:47:22.743Z,18.31
2023-03-26T15:50:17.634Z,18.47
2023-03-26T15:52:49.688Z,18.40
2023-03-26T15:55:16.973Z,18.47
2023-03-26T15:58:04.014Z,18.31
2023-03-26T16:00:34.620Z,18.42
2023-03-26T16:03:09.789Z,18.25
2023-03-26T16:06:07.254Z,18.20
2023-03-26T16:08:57.103Z,18.21
2023-03-26T16:11:46.190Z,18.18
2023-03-26T16:14:24.199Z,18.25
2023-03-26T16:16:56.461Z,18.15
2023-03-26T16:19:50.281Z,18.03
2023-03-26T16:22:56.553Z,18.01
2023-03-26T16:25:29.604Z,17.96
2023-03-26T16:28:12.414Z,17.85
2023-03-26T16:30:42.113Z,17.86
2023-03-26T16:33:17.682Z,17.63
2023-03-26T16:36:01.948Z,17.73
2023-03-26T16:39:05.941Z,17.55
2023-03-26T16:41:37.192Z,16.84
2023-03-26T16:44:37.628Z,17.19
2023-03-26T16:47:22.620Z,17.36
2023-03-26T16:50:18.727Z,17.46
2023-03-26T16:53:03.723Z,17.26
2023-03-26T16:55:36.052Z,17.42
2023-03-26T16:58:27.993Z,17.32
2023-03-26T17:01:21.373Z,17.18
2023-03-26T17:03:49.153Z,17.17
2023-03-26T17:06:27.055Z,16.92
2023-03-26T17:09:09.378Z,16.89
2023-03-26T17:12:06.668Z,16.94
2023-03-26T17:14:49.010Z,16.90
2023-03-26T17:17:44.753Z,16.78
2023-03-26T17:20:33.272Z,16.66
2023-03-26T17:23:09.215Z,16.66
2023-03-26T17:25:52.475Z,16.80
2023-03-26T17:28:50.727Z,16.62
2023-03-26T17:31:51.119Z,16.70
2023-03-26T17:34:46.721Z,16.65
2023-03-26T17:37:17.042Z,16.70
2023-03-26T17:39:46.171Z,16.81
2023-03-26T17:42:18.889Z,16.63
2023-03-26T17:44:47.269Z,16.50
2023-03-26T17:47:22.480Z,16.39
2023-03-26T17:49:51.059Z,16.44
2023-03-26T17:52:25.796Z,16.51
2023-03-26T17:54:55.290Z,16.59
2023-03-26T17:57:41.813Z,16.54
2023-03-26T18:00:34.079Z,16.57
2023-03-26T18:03:22.881Z,16.38
2023-03-26T18:05:55.493Z,16.41
2023-03-26T18:08:32.843Z,16.29
2023-03-26T18:11:41.387Z,16.41
2023-03-26T18:14:41.174Z,16.55
2023-03-26T18:17:08.534Z,16.40
2023-03-26T18:19:50.718Z,16.39
2023-03-26T18:22:20.779Z,16.49
2023-03-26T18:24:48.435Z,16.36
2023-03-26T18:27:18.762Z,16.41
2023-03-26T18:30:02.929Z,16.40
2023-03-26T18:32:33.848Z,16.49
2023-03-26T18:35:13.508Z,16.52
2023-03-26T18:37:44.227Z,16.51
2023-03-26T18:40:20.143Z,16.51
2023-03-26T18:42:55.978Z,16.49
2023-03-26T18:45:24.877Z,16.50
2023-03-26T18:47:52.905Z,16.45
2023-03-26T18:50:27.541Z,16.46
2023-03-26T18:52:57.374Z,16.40
2023-03-26T18:55:27.346Z,16.39
2023-03-26T18:57:54.981Z,16.39
2023-03-26T19:00:26.101Z,16.47
2023-03-26T19:03:05.023Z,16.38
2023-03-26T19:05:33.770Z,16.48
2023-03-26T19:08:03.563Z,16.39
2023-03-26T19:10:31.558Z,16.42
2023-03-26T19:13:01.370Z,16.43
2023-03-26T19:15:30.906Z,16.41
2023-03-26T19:18:06.945Z,16.42
2023-03-26T19:20:43.339Z,16.56
2023-03-26T19:23:16.207Z,16.18
2023-03-26T19:25:54.946Z,16.34
2023-03-26T19:28:28.182Z,16.34
2023-03-26T19:30:57.874Z,16.25
2023-03-26T19:33:33.145Z,16.26
2023-03-26T19:36:05.911Z,16.33
2023-03-26T19:38:44.575Z,16.32
2023-03-26T19:41:31.598Z,16.29
2023-03-26T19:44:00.723Z,16.36
2023-03-26T19:46:28.987Z,16.15
2023-03-26T19:48:56.605Z,15.89
2023-03-26T19:51:30.877Z,15.95
2023-03-26T19:54:00.773Z,15.95
2023-03-26T19:56:28.819Z,16.04
2023-03-26T19:58:56.445Z,16.19
2023-03-26T20:01:25.561Z,16.13
2023-03-26T20:03:58.142Z,16.10
2023-03-26T20:06:41.744Z,16.11
2023-03-26T20:09:11.813Z,16.20
2023-03-26T20:11:39.864Z,16.22
2023-03-26T20:14:11.970Z,16.15
2023-03-26T20:16:40.343Z,16.22
2023-03-26T20:19:08.974Z,16.32
2023-03-26T20:21:38.139Z,16.06
2023-03-26T20:24:16.322Z,16.21
2023-03-26T20:26:44.432Z,16.22
2023-03-26T20:29:12.992Z,16.21
2023-03-26T20:31:43.420Z,16.03
2023-03-26T20:34:19.807Z,16.08
2023-03-26T20:36:47.456Z,16.09
2023-03-26T20:39:14.783Z,16.31
2023-03-26T20:41:47.159Z,16.01
2023-03-26T20:44:16.725Z,15.99
2023-03-26T20:46:44.362Z,16.03
2023-03-26T20:49:11.883Z,16.09
2023-03-26T20:51:41.901Z,16.06
2023-03-26T20:54:17.580Z,16.09
2023-03-26T20:56:45.723Z,16.08
2023-03-26T20:59:14.716Z,16.10
2023-03-26T21:01:42.155Z,16.12
2023-03-26T21:04:09.805Z,16.07
2023-03-26T21:06:37.264Z,16.06
2023-03-26T21:09:04.968Z,16.03
2023-03-26T21:11:44.618Z,16.12
2023-03-26T21:14:28.149Z,16.18
2023-03-26T21:16:56.590Z,16.04
2023-03-26T21:19:24.240Z,16.08
2023-03-26T21:22:05.170Z,15.41
2023-03-26T21:24:49.532Z,15.07
2023-03-26T21:27:19.574Z,14.28
2023-03-26T21:29:47.676Z,13.26
2023-03-26T21:32:15.289Z,13.49
2023-03-26T21:34:55.671Z,13.54
2023-03-26T21:37:25.919Z,13.53
2023-03-26T21:39:53.400Z,13.20
2023-03-26T21:42:20.996Z,13.19
2023-03-26T21:44:48.885Z,13.38
2023-03-26T21:47:16.353Z,13.09
2023-03-26T21:49:43.894Z,13.25
2023-03-26T21:52:14.777Z,13.30
2023-03-26T21:54:43.263Z,13.57
2023-03-26T21:57:21.781Z,13.54
2023-03-26T22:00:15.186Z,13.79
2023-03-26T22:02:51.906Z,13.75
2023-03-26T22:05:33.537Z,13.65
2023-03-26T22:08:02.905Z,13.63
2023-03-26T22:10:30.830Z,13.88
2023-03-26T22:12:58.674Z,13.79
2023-03-26T22:15:30.354Z,13.74
2023-03-26T22:18:02.008Z,13.79
2023-03-26T22:20:29.772Z,13.35
2023-03-26T22:22:57.379Z,13.38
2023-03-26T22:25:24.798Z,13.10
2023-03-26T22:27:52.830Z,13.10
2023-03-26T22:30:23.011Z,12.77
2023-03-26T22:32:50.432Z,13.04
2023-03-26T22:35:18.214Z,13.07
2023-03-26T22:37:46.007Z,12.81
2023-03-26T22:40:13.661Z,12.56
2023-03-26T22:42:41.509Z,12.87
2023-03-26T22:45:12.446Z,12.69
2023-03-26T22:47:40.223Z,12.84
2023-03-26T22:50:08.438Z,12.87
2023-03-26T22:52:36.498Z,12.90
2023-03-26T22:55:04.749Z,12.98
2023-03-26T22:57:32.400Z,13.10
2023-03-26T23:00:12.177Z,13.08
2023-03-26T23:02:40.574Z,13.12
2023-03-26T23:05:08.228Z,13.02
2023-03-26T23:07:35.571Z,13.12
2023-03-26T23:10:04.240Z,12.84
2023-03-26T23:12:31.629Z,12.75
2023-03-26T23:14:58.963Z,12.86
2023-03-26T23:17:27.074Z,13.01
2023-03-26T23:19:54.571Z,12.76
2023-03-26T23:22:22.232Z,12.97
2023-03-26T23:24:50.267Z,12.85
2023-03-26T23:27:17.910Z,12.33
2023-03-26T23:29:50.410Z,12.32
2023-03-26T23:32:23.997Z,12.63
2023-03-26T23:34:52.704Z,12.85
2023-03-26T23:37:23.288Z,12.79
2023-03-26T23:39:51.236Z,13.06
2023-03-26T23:42:28.795Z,13.04
2023-03-26T23:44:57.667Z,12.82
2023-03-26T23:47:25.362Z,12.67
2023-03-26T23:49:52.737Z,12.99
2023-03-26T23:52:20.031Z,12.90
2023-03-26T23:54:47.662Z,12.73
2023-03-26T23:57:15.699Z,13.00
2023-03-26T23:59:43.642Z,12.82
